Beckemeyer, Illinois
Current Conditions -  °F | °C
As of 4:35 AM on Thursday 18 Dec 2014 (Local Time) from KENL Reporting Station
Overcast Overcast  
Wind Chill: 28°   Ceiling: 1200
Heat Index: 28°   Visibility: 7mi
Dew Point: 24°   Wind: 3mph
Humidity: 84%   Direction: 30°NNE
Pressure: 30.28"   Gusts: NA
Location:  38.61°N, 89.44°W
Report Text: KENL 181035Z AUTO 03003KT 7SM BKN012 OVC080 M02/M04 A3028 RMK AO2 T10201043
Loading
Personal Weather Stations






























Interactive Weather Map New forecast layout! Learn more

10-Day Weather Forecast

Advertisements
Track Severe Weather on mobile